sensor_id;sensor_type;location;lat;lon;timestamp;P1;durP1;ratioP1;P2;durP2;ratioP2
9823;SDS011;4951;50.778;7.196;2023-08-24T00:02:06;4.80;;;3.65;;
9823;SDS011;4951;50.778;7.196;2023-08-24T00:04:35;8.13;;;3.85;;
9823;SDS011;4951;50.778;7.196;2023-08-24T00:07:02;6.25;;;3.20;;
9823;SDS011;4951;50.778;7.196;2023-08-24T00:09:29;7.68;;;3.67;;
9823;SDS011;4951;50.778;7.196;2023-08-24T00:11:57;4.90;;;3.30;;
9823;SDS011;4951;50.778;7.196;2023-08-24T00:14:25;4.32;;;3.22;;
9823;SDS011;4951;50.778;7.196;2023-08-24T00:16:53;9.85;;;3.80;;
9823;SDS011;4951;50.778;7.196;2023-08-24T00:19:20;4.78;;;3.33;;
9823;SDS011;4951;50.778;7.196;2023-08-24T00:21:50;5.95;;;3.22;;
9823;SDS011;4951;50.778;7.196;2023-08-24T00:24:18;5.70;;;3.63;;
9823;SDS011;4951;50.778;7.196;2023-08-24T00:26:45;4.85;;;3.28;;
9823;SDS011;4951;50.778;7.196;2023-08-24T00:29:12;4.78;;;3.30;;
9823;SDS011;4951;50.778;7.196;2023-08-24T00:31:40;5.85;;;3.88;;
9823;SDS011;4951;50.778;7.196;2023-08-24T00:34:07;4.30;;;3.70;;
9823;SDS011;4951;50.778;7.196;2023-08-24T00:36:34;3.65;;;3.35;;
9823;SDS011;4951;50.778;7.196;2023-08-24T00:39:04;4.13;;;3.45;;
9823;SDS011;4951;50.778;7.196;2023-08-24T00:41:31;4.13;;;3.73;;
9823;SDS011;4951;50.778;7.196;2023-08-24T00:44:01;7.30;;;3.90;;
9823;SDS011;4951;50.778;7.196;2023-08-24T00:46:30;7.43;;;4.03;;
9823;SDS011;4951;50.778;7.196;2023-08-24T00:48:57;6.63;;;4.00;;
9823;SDS011;4951;50.778;7.196;2023-08-24T00:51:24;7.63;;;3.80;;
9823;SDS011;4951;50.778;7.196;2023-08-24T00:53:51;6.32;;;3.70;;
9823;SDS011;4951;50.778;7.196;2023-08-24T00:56:21;6.20;;;3.92;;
9823;SDS011;4951;50.778;7.196;2023-08-24T00:58:49;7.63;;;3.53;;
9823;SDS011;4951;50.778;7.196;2023-08-24T01:01:17;8.13;;;4.10;;
9823;SDS011;4951;50.778;7.196;2023-08-24T01:03:44;4.47;;;3.80;;
9823;SDS011;4951;50.778;7.196;2023-08-24T01:06:12;5.60;;;3.97;;
9823;SDS011;4951;50.778;7.196;2023-08-24T01:08:39;7.17;;;3.83;;
9823;SDS011;4951;50.778;7.196;2023-08-24T01:11:08;7.05;;;3.83;;
9823;SDS011;4951;50.778;7.196;2023-08-24T01:13:46;5.00;;;3.70;;
9823;SDS011;4951;50.778;7.196;2023-08-24T01:16:21;4.57;;;3.90;;
9823;SDS011;4951;50.778;7.196;2023-08-24T01:18:54;6.07;;;4.00;;
9823;SDS011;4951;50.778;7.196;2023-08-24T01:21:24;7.57;;;3.83;;
9823;SDS011;4951;50.778;7.196;2023-08-24T01:23:53;8.23;;;4.30;;
9823;SDS011;4951;50.778;7.196;2023-08-24T01:26:31;7.20;;;4.10;;
9823;SDS011;4951;50.778;7.196;2023-08-24T01:28:59;5.63;;;3.70;;
9823;SDS011;4951;50.778;7.196;2023-08-24T01:31:30;7.90;;;3.90;;
9823;SDS011;4951;50.778;7.196;2023-08-24T01:33:59;9.53;;;4.00;;
9823;SDS011;4951;50.778;7.196;2023-08-24T01:36:26;6.40;;;3.90;;
9823;SDS011;4951;50.778;7.196;2023-08-24T01:38:58;4.50;;;3.80;;
9823;SDS011;4951;50.778;7.196;2023-08-24T01:41:35;3.83;;;3.47;;
9823;SDS011;4951;50.778;7.196;2023-08-24T01:44:04;5.83;;;3.87;;
9823;SDS011;4951;50.778;7.196;2023-08-24T01:46:32;4.23;;;3.57;;
9823;SDS011;4951;50.778;7.196;2023-08-24T01:49:00;7.30;;;3.30;;
9823;SDS011;4951;50.778;7.196;2023-08-24T01:51:29;4.35;;;3.70;;
9823;SDS011;4951;50.778;7.196;2023-08-24T01:53:58;4.53;;;3.70;;
9823;SDS011;4951;50.778;7.196;2023-08-24T01:56:26;4.47;;;3.60;;
9823;SDS011;4951;50.778;7.196;2023-08-24T01:58:54;4.73;;;3.77;;
9823;SDS011;4951;50.778;7.196;2023-08-24T02:01:22;4.97;;;3.90;;
9823;SDS011;4951;50.778;7.196;2023-08-24T02:03:50;5.50;;;3.60;;
9823;SDS011;4951;50.778;7.196;2023-08-24T02:06:18;6.40;;;3.83;;
9823;SDS011;4951;50.778;7.196;2023-08-24T02:08:46;4.97;;;4.10;;
9823;SDS011;4951;50.778;7.196;2023-08-24T02:11:14;7.47;;;3.93;;
9823;SDS011;4951;50.778;7.196;2023-08-24T02:13:41;12.13;;;4.20;;
9823;SDS011;4951;50.778;7.196;2023-08-24T02:16:13;7.07;;;3.83;;
9823;SDS011;4951;50.778;7.196;2023-08-24T02:18:40;5.50;;;3.93;;
9823;SDS011;4951;50.778;7.196;2023-08-24T02:21:08;8.02;;;3.50;;
9823;SDS011;4951;50.778;7.196;2023-08-24T02:23:36;4.93;;;3.90;;
9823;SDS011;4951;50.778;7.196;2023-08-24T02:26:04;6.10;;;3.97;;
9823;SDS011;4951;50.778;7.196;2023-08-24T02:28:32;6.30;;;4.07;;
9823;SDS011;4951;50.778;7.196;2023-08-24T02:31:02;4.30;;;3.60;;
9823;SDS011;4951;50.778;7.196;2023-08-24T02:33:32;4.63;;;3.73;;
9823;SDS011;4951;50.778;7.196;2023-08-24T02:35:59;4.40;;;3.83;;
9823;SDS011;4951;50.778;7.196;2023-08-24T02:38:27;7.00;;;4.00;;
9823;SDS011;4951;50.778;7.196;2023-08-24T02:41:01;5.93;;;3.77;;
9823;SDS011;4951;50.778;7.196;2023-08-24T02:43:29;5.73;;;3.93;;
9823;SDS011;4951;50.778;7.196;2023-08-24T02:45:59;7.87;;;4.17;;
9823;SDS011;4951;50.778;7.196;2023-08-24T02:48:28;5.63;;;3.77;;
9823;SDS011;4951;50.778;7.196;2023-08-24T02:50:58;5.17;;;3.67;;
9823;SDS011;4951;50.778;7.196;2023-08-24T02:53:26;6.22;;;3.65;;
9823;SDS011;4951;50.778;7.196;2023-08-24T02:55:54;5.00;;;3.80;;
9823;SDS011;4951;50.778;7.196;2023-08-24T02:58:21;6.20;;;3.77;;
9823;SDS011;4951;50.778;7.196;2023-08-24T03:00:48;7.10;;;3.80;;
9823;SDS011;4951;50.778;7.196;2023-08-24T03:03:16;6.53;;;3.80;;
9823;SDS011;4951;50.778;7.196;2023-08-24T03:05:52;5.13;;;3.90;;
9823;SDS011;4951;50.778;7.196;2023-08-24T03:08:22;4.90;;;3.83;;
9823;SDS011;4951;50.778;7.196;2023-08-24T03:10:49;6.20;;;4.13;;
9823;SDS011;4951;50.778;7.196;2023-08-24T03:13:16;5.23;;;3.97;;
9823;SDS011;4951;50.778;7.196;2023-08-24T03:15:43;4.73;;;3.77;;
9823;SDS011;4951;50.778;7.196;2023-08-24T03:18:11;5.53;;;4.03;;
9823;SDS011;4951;50.778;7.196;2023-08-24T03:20:40;10.80;;;4.40;;
9823;SDS011;4951;50.778;7.196;2023-08-24T03:23:07;8.07;;;4.27;;
9823;SDS011;4951;50.778;7.196;2023-08-24T03:25:37;5.47;;;4.35;;
9823;SDS011;4951;50.778;7.196;2023-08-24T03:28:06;5.10;;;4.10;;
9823;SDS011;4951;50.778;7.196;2023-08-24T03:30:35;6.82;;;4.07;;
9823;SDS011;4951;50.778;7.196;2023-08-24T03:33:03;5.63;;;3.90;;
9823;SDS011;4951;50.778;7.196;2023-08-24T03:35:32;8.53;;;4.17;;
9823;SDS011;4951;50.778;7.196;2023-08-24T03:38:00;8.13;;;4.28;;
9823;SDS011;4951;50.778;7.196;2023-08-24T03:40:28;7.90;;;4.33;;
9823;SDS011;4951;50.778;7.196;2023-08-24T03:42:56;8.45;;;4.25;;
9823;SDS011;4951;50.778;7.196;2023-08-24T03:45:24;5.07;;;4.03;;
9823;SDS011;4951;50.778;7.196;2023-08-24T03:47:54;4.23;;;3.77;;
9823;SDS011;4951;50.778;7.196;2023-08-24T03:50:21;6.68;;;4.32;;
9823;SDS011;4951;50.778;7.196;2023-08-24T03:52:50;5.45;;;4.20;;
9823;SDS011;4951;50.778;7.196;2023-08-24T03:55:17;7.13;;;4.38;;
9823;SDS011;4951;50.778;7.196;2023-08-24T03:57:44;7.25;;;4.28;;
9823;SDS011;4951;50.778;7.196;2023-08-24T04:00:14;5.20;;;4.07;;
9823;SDS011;4951;50.778;7.196;2023-08-24T04:02:42;6.25;;;4.32;;
9823;SDS011;4951;50.778;7.196;2023-08-24T04:05:18;5.43;;;4.25;;
9823;SDS011;4951;50.778;7.196;2023-08-24T04:07:47;5.47;;;4.10;;
9823;SDS011;4951;50.778;7.196;2023-08-24T04:10:14;4.72;;;4.10;;
9823;SDS011;4951;50.778;7.196;2023-08-24T04:12:41;4.68;;;4.10;;
9823;SDS011;4951;50.778;7.196;2023-08-24T04:15:09;4.97;;;3.67;;
9823;SDS011;4951;50.778;7.196;2023-08-24T04:17:39;5.30;;;3.70;;
9823;SDS011;4951;50.778;7.196;2023-08-24T04:20:06;4.70;;;3.40;;
9823;SDS011;4951;50.778;7.196;2023-08-24T04:22:35;4.78;;;3.85;;
9823;SDS011;4951;50.778;7.196;2023-08-24T04:25:04;7.85;;;3.65;;
9823;SDS011;4951;50.778;7.196;2023-08-24T04:27:32;3.83;;;3.42;;
9823;SDS011;4951;50.778;7.196;2023-08-24T04:29:59;5.00;;;4.00;;
9823;SDS011;4951;50.778;7.196;2023-08-24T04:32:28;5.07;;;3.78;;
9823;SDS011;4951;50.778;7.196;2023-08-24T04:34:59;5.68;;;3.90;;
9823;SDS011;4951;50.778;7.196;2023-08-24T04:37:26;8.13;;;3.97;;
9823;SDS011;4951;50.778;7.196;2023-08-24T04:39:54;5.10;;;3.97;;
9823;SDS011;4951;50.778;7.196;2023-08-24T04:42:21;15.68;;;4.65;;
9823;SDS011;4951;50.778;7.196;2023-08-24T04:44:48;5.88;;;4.30;;
9823;SDS011;4951;50.778;7.196;2023-08-24T04:47:18;5.22;;;3.80;;
9823;SDS011;4951;50.778;7.196;2023-08-24T04:49:46;5.47;;;3.45;;
9823;SDS011;4951;50.778;7.196;2023-08-24T04:52:14;4.57;;;3.97;;
9823;SDS011;4951;50.778;7.196;2023-08-24T04:54:41;5.35;;;4.13;;
9823;SDS011;4951;50.778;7.196;2023-08-24T04:57:09;4.93;;;4.18;;
9823;SDS011;4951;50.778;7.196;2023-08-24T04:59:39;5.70;;;3.95;;
9823;SDS011;4951;50.778;7.196;2023-08-24T05:02:06;7.40;;;4.35;;
9823;SDS011;4951;50.778;7.196;2023-08-24T05:04:36;7.47;;;4.30;;
9823;SDS011;4951;50.778;7.196;2023-08-24T05:07:05;7.47;;;4.15;;
9823;SDS011;4951;50.778;7.196;2023-08-24T05:09:34;5.97;;;4.73;;
9823;SDS011;4951;50.778;7.196;2023-08-24T05:12:01;6.82;;;4.57;;
9823;SDS011;4951;50.778;7.196;2023-08-24T05:14:29;9.95;;;4.72;;
9823;SDS011;4951;50.778;7.196;2023-08-24T05:16:58;8.07;;;4.80;;
9823;SDS011;4951;50.778;7.196;2023-08-24T05:19:26;5.17;;;4.67;;
9823;SDS011;4951;50.778;7.196;2023-08-24T05:21:54;5.73;;;4.60;;
9823;SDS011;4951;50.778;7.196;2023-08-24T05:24:21;6.97;;;4.57;;
9823;SDS011;4951;50.778;7.196;2023-08-24T05:26:51;7.45;;;4.32;;
9823;SDS011;4951;50.778;7.196;2023-08-24T05:29:18;7.90;;;4.63;;
9823;SDS011;4951;50.778;7.196;2023-08-24T05:31:46;14.70;;;6.47;;
9823;SDS011;4951;50.778;7.196;2023-08-24T05:34:14;14.03;;;6.20;;
9823;SDS011;4951;50.778;7.196;2023-08-24T05:36:41;7.40;;;5.40;;
9823;SDS011;4951;50.778;7.196;2023-08-24T05:39:09;9.67;;;5.90;;
9823;SDS011;4951;50.778;7.196;2023-08-24T05:41:38;10.20;;;5.90;;
9823;SDS011;4951;50.778;7.196;2023-08-24T05:44:06;7.55;;;6.35;;
9823;SDS011;4951;50.778;7.196;2023-08-24T05:46:35;11.60;;;6.27;;
9823;SDS011;4951;50.778;7.196;2023-08-24T05:49:10;6.37;;;5.70;;
9823;SDS011;4951;50.778;7.196;2023-08-24T05:51:38;9.38;;;5.50;;
9823;SDS011;4951;50.778;7.196;2023-08-24T05:54:07;8.30;;;5.70;;
9823;SDS011;4951;50.778;7.196;2023-08-24T05:56:40;9.30;;;5.20;;
9823;SDS011;4951;50.778;7.196;2023-08-24T05:59:09;8.07;;;5.70;;
9823;SDS011;4951;50.778;7.196;2023-08-24T06:01:37;5.53;;;4.87;;
9823;SDS011;4951;50.778;7.196;2023-08-24T06:04:07;6.30;;;4.93;;
9823;SDS011;4951;50.778;7.196;2023-08-24T06:06:34;8.02;;;5.38;;
9823;SDS011;4951;50.778;7.196;2023-08-24T06:09:02;9.13;;;5.17;;
9823;SDS011;4951;50.778;7.196;2023-08-24T06:11:30;9.15;;;5.28;;
9823;SDS011;4951;50.778;7.196;2023-08-24T06:14:38;9.40;;;5.10;;
9823;SDS011;4951;50.778;7.196;2023-08-24T06:16:54;7.53;;;5.37;;
9823;SDS011;4951;50.778;7.196;2023-08-24T06:19:23;7.30;;;5.40;;
9823;SDS011;4951;50.778;7.196;2023-08-24T06:21:53;6.50;;;4.80;;
9823;SDS011;4951;50.778;7.196;2023-08-24T06:24:20;6.03;;;5.10;;
9823;SDS011;4951;50.778;7.196;2023-08-24T06:27:03;8.40;;;4.97;;
9823;SDS011;4951;50.778;7.196;2023-08-24T06:32:34;6.23;;;5.10;;
9823;SDS011;4951;50.778;7.196;2023-08-24T06:35:12;5.82;;;4.47;;
9823;SDS011;4951;50.778;7.196;2023-08-24T06:37:46;6.43;;;4.70;;
9823;SDS011;4951;50.778;7.196;2023-08-24T06:40:16;7.35;;;4.70;;
9823;SDS011;4951;50.778;7.196;2023-08-24T06:42:47;4.68;;;4.03;;
9823;SDS011;4951;50.778;7.196;2023-08-24T06:45:16;6.22;;;4.30;;
9823;SDS011;4951;50.778;7.196;2023-08-24T06:47:47;4.65;;;4.22;;
9823;SDS011;4951;50.778;7.196;2023-08-24T06:50:19;4.97;;;4.50;;
9823;SDS011;4951;50.778;7.196;2023-08-24T06:52:49;5.38;;;4.38;;
9823;SDS011;4951;50.778;7.196;2023-08-24T06:55:16;5.63;;;4.00;;
9823;SDS011;4951;50.778;7.196;2023-08-24T07:00:47;5.07;;;4.22;;
9823;SDS011;4951;50.778;7.196;2023-08-24T07:03:24;5.45;;;3.97;;
9823;SDS011;4951;50.778;7.196;2023-08-24T07:05:51;4.05;;;3.63;;
9823;SDS011;4951;50.778;7.196;2023-08-24T07:08:21;3.63;;;3.33;;
9823;SDS011;4951;50.778;7.196;2023-08-24T07:10:54;3.75;;;3.40;;
9823;SDS011;4951;50.778;7.196;2023-08-24T07:13:21;4.60;;;3.40;;
9823;SDS011;4951;50.778;7.196;2023-08-24T07:15:50;7.43;;;3.97;;
9823;SDS011;4951;50.778;7.196;2023-08-24T07:18:18;4.35;;;3.80;;
9823;SDS011;4951;50.778;7.196;2023-08-24T07:20:46;7.57;;;3.65;;
9823;SDS011;4951;50.778;7.196;2023-08-24T07:23:16;5.55;;;4.05;;
9823;SDS011;4951;50.778;7.196;2023-08-24T07:25:47;6.28;;;3.65;;
9823;SDS011;4951;50.778;7.196;2023-08-24T07:28:22;7.18;;;4.28;;
9823;SDS011;4951;50.778;7.196;2023-08-24T07:31:00;5.40;;;3.67;;
9823;SDS011;4951;50.778;7.196;2023-08-24T07:33:52;6.55;;;3.72;;
9823;SDS011;4951;50.778;7.196;2023-08-24T07:36:21;4.78;;;2.90;;
9823;SDS011;4951;50.778;7.196;2023-08-24T07:38:56;5.15;;;3.70;;
9823;SDS011;4951;50.778;7.196;2023-08-24T07:41:27;4.78;;;3.00;;
9823;SDS011;4951;50.778;7.196;2023-08-24T07:44:02;3.78;;;3.28;;
9823;SDS011;4951;50.778;7.196;2023-08-24T07:46:31;4.55;;;2.95;;
9823;SDS011;4951;50.778;7.196;2023-08-24T07:49:08;6.40;;;3.03;;
9823;SDS011;4951;50.778;7.196;2023-08-24T07:51:36;4.05;;;2.60;;
9823;SDS011;4951;50.778;7.196;2023-08-24T07:54:03;4.90;;;3.03;;
9823;SDS011;4951;50.778;7.196;2023-08-24T07:56:34;3.75;;;2.90;;
9823;SDS011;4951;50.778;7.196;2023-08-24T07:59:07;4.50;;;2.67;;
9823;SDS011;4951;50.778;7.196;2023-08-24T08:01:36;4.28;;;2.80;;
9823;SDS011;4951;50.778;7.196;2023-08-24T08:04:03;5.43;;;2.60;;
9823;SDS011;4951;50.778;7.196;2023-08-24T08:06:33;4.03;;;2.80;;
9823;SDS011;4951;50.778;7.196;2023-08-24T08:09:03;4.20;;;2.70;;
9823;SDS011;4951;50.778;7.196;2023-08-24T08:11:31;3.90;;;2.80;;
9823;SDS011;4951;50.778;7.196;2023-08-24T08:14:00;3.75;;;2.53;;
9823;SDS011;4951;50.778;7.196;2023-08-24T08:16:29;2.90;;;2.60;;
9823;SDS011;4951;50.778;7.196;2023-08-24T08:18:58;5.22;;;2.90;;
9823;SDS011;4951;50.778;7.196;2023-08-24T08:21:25;4.53;;;3.00;;
9823;SDS011;4951;50.778;7.196;2023-08-24T08:23:53;3.78;;;2.53;;
9823;SDS011;4951;50.778;7.196;2023-08-24T08:26:22;4.18;;;2.80;;
9823;SDS011;4951;50.778;7.196;2023-08-24T08:28:49;3.42;;;2.55;;
9823;SDS011;4951;50.778;7.196;2023-08-24T08:31:17;3.75;;;2.75;;
9823;SDS011;4951;50.778;7.196;2023-08-24T08:33:45;3.00;;;2.58;;
9823;SDS011;4951;50.778;7.196;2023-08-24T08:36:14;4.63;;;2.80;;
9823;SDS011;4951;50.778;7.196;2023-08-24T08:38:41;5.13;;;2.65;;
9823;SDS011;4951;50.778;7.196;2023-08-24T08:41:09;2.80;;;2.35;;
9823;SDS011;4951;50.778;7.196;2023-08-24T08:43:37;4.07;;;2.95;;
9823;SDS011;4951;50.778;7.196;2023-08-24T08:46:06;6.85;;;2.70;;
9823;SDS011;4951;50.778;7.196;2023-08-24T08:48:37;4.22;;;2.63;;
9823;SDS011;4951;50.778;7.196;2023-08-24T08:51:17;6.40;;;2.47;;
9823;SDS011;4951;50.778;7.196;2023-08-24T08:53:47;4.22;;;2.67;;
9823;SDS011;4951;50.778;7.196;2023-08-24T08:56:19;4.13;;;2.65;;
9823;SDS011;4951;50.778;7.196;2023-08-24T08:58:51;5.35;;;2.70;;
9823;SDS011;4951;50.778;7.196;2023-08-24T09:01:21;3.00;;;2.78;;
9823;SDS011;4951;50.778;7.196;2023-08-24T09:03:54;5.65;;;2.88;;
9823;SDS011;4951;50.778;7.196;2023-08-24T09:06:25;3.92;;;2.67;;
9823;SDS011;4951;50.778;7.196;2023-08-24T09:08:53;4.88;;;2.95;;
9823;SDS011;4951;50.778;7.196;2023-08-24T09:11:20;3.83;;;2.90;;
9823;SDS011;4951;50.778;7.196;2023-08-24T09:14:07;8.07;;;3.20;;
9823;SDS011;4951;50.778;7.196;2023-08-24T09:16:35;3.33;;;3.03;;
9823;SDS011;4951;50.778;7.196;2023-08-24T09:19:10;3.28;;;2.88;;
9823;SDS011;4951;50.778;7.196;2023-08-24T09:21:42;5.13;;;2.80;;
9823;SDS011;4951;50.778;7.196;2023-08-24T09:24:10;6.60;;;3.30;;
9823;SDS011;4951;50.778;7.196;2023-08-24T09:26:37;4.05;;;2.63;;
9823;SDS011;4951;50.778;7.196;2023-08-24T09:29:11;4.30;;;2.88;;
9823;SDS011;4951;50.778;7.196;2023-08-24T09:31:42;6.00;;;2.90;;
9823;SDS011;4951;50.778;7.196;2023-08-24T09:34:11;4.68;;;2.65;;
9823;SDS011;4951;50.778;7.196;2023-08-24T09:36:53;3.03;;;2.63;;
9823;SDS011;4951;50.778;7.196;2023-08-24T09:39:33;4.00;;;2.75;;
9823;SDS011;4951;50.778;7.196;2023-08-24T09:42:05;2.67;;;2.45;;
9823;SDS011;4951;50.778;7.196;2023-08-24T09:44:34;3.97;;;2.40;;
9823;SDS011;4951;50.778;7.196;2023-08-24T09:47:09;3.60;;;2.72;;
9823;SDS011;4951;50.778;7.196;2023-08-24T09:49:42;3.97;;;2.60;;
9823;SDS011;4951;50.778;7.196;2023-08-24T09:52:22;4.38;;;2.67;;
9823;SDS011;4951;50.778;7.196;2023-08-24T09:54:54;5.03;;;2.65;;
9823;SDS011;4951;50.778;7.196;2023-08-24T09:57:23;4.72;;;2.60;;
9823;SDS011;4951;50.778;7.196;2023-08-24T09:59:55;3.67;;;2.47;;
9823;SDS011;4951;50.778;7.196;2023-08-24T10:02:23;3.45;;;2.67;;
9823;SDS011;4951;50.778;7.196;2023-08-24T10:05:02;2.95;;;2.30;;
9823;SDS011;4951;50.778;7.196;2023-08-24T10:07:40;2.58;;;2.38;;
9823;SDS011;4951;50.778;7.196;2023-08-24T10:10:18;4.03;;;2.53;;
9823;SDS011;4951;50.778;7.196;2023-08-24T10:12:56;3.47;;;2.38;;
9823;SDS011;4951;50.778;7.196;2023-08-24T10:15:30;3.05;;;2.42;;
9823;SDS011;4951;50.778;7.196;2023-08-24T10:18:02;3.30;;;2.60;;
9823;SDS011;4951;50.778;7.196;2023-08-24T10:20:40;4.07;;;2.65;;
9823;SDS011;4951;50.778;7.196;2023-08-24T10:23:11;2.60;;;2.40;;
9823;SDS011;4951;50.778;7.196;2023-08-24T10:25:46;3.75;;;2.72;;
9823;SDS011;4951;50.778;7.196;2023-08-24T10:28:29;5.57;;;2.60;;
9823;SDS011;4951;50.778;7.196;2023-08-24T10:30:59;3.53;;;2.42;;
9823;SDS011;4951;50.778;7.196;2023-08-24T10:33:45;3.20;;;2.42;;
9823;SDS011;4951;50.778;7.196;2023-08-24T10:36:15;2.63;;;2.20;;
9823;SDS011;4951;50.778;7.196;2023-08-24T10:38:51;3.65;;;2.53;;
9823;SDS011;4951;50.778;7.196;2023-08-24T10:41:54;4.25;;;2.50;;
9823;SDS011;4951;50.778;7.196;2023-08-24T10:44:34;4.13;;;2.65;;
9823;SDS011;4951;50.778;7.196;2023-08-24T10:47:06;2.63;;;2.33;;
9823;SDS011;4951;50.778;7.196;2023-08-24T10:49:57;4.43;;;2.60;;
9823;SDS011;4951;50.778;7.196;2023-08-24T10:52:25;4.03;;;2.45;;
9823;SDS011;4951;50.778;7.196;2023-08-24T10:55:00;4.47;;;2.40;;
9823;SDS011;4951;50.778;7.196;2023-08-24T10:57:34;4.75;;;2.42;;
9823;SDS011;4951;50.778;7.196;2023-08-24T11:00:08;3.63;;;2.50;;
9823;SDS011;4951;50.778;7.196;2023-08-24T11:02:41;4.13;;;2.35;;
9823;SDS011;4951;50.778;7.196;2023-08-24T11:05:16;4.10;;;2.90;;
9823;SDS011;4951;50.778;7.196;2023-08-24T11:07:47;5.00;;;2.65;;
9823;SDS011;4951;50.778;7.196;2023-08-24T11:10:20;6.43;;;2.58;;
9823;SDS011;4951;50.778;7.196;2023-08-24T11:13:06;4.60;;;2.67;;
9823;SDS011;4951;50.778;7.196;2023-08-24T11:15:33;3.58;;;2.63;;
9823;SDS011;4951;50.778;7.196;2023-08-24T11:18:22;2.75;;;2.55;;
9823;SDS011;4951;50.778;7.196;2023-08-24T11:20:52;3.00;;;2.60;;
9823;SDS011;4951;50.778;7.196;2023-08-24T11:23:30;4.03;;;2.60;;
9823;SDS011;4951;50.778;7.196;2023-08-24T11:26:00;4.50;;;2.45;;
9823;SDS011;4951;50.778;7.196;2023-08-24T11:28:28;3.13;;;2.53;;
9823;SDS011;4951;50.778;7.196;2023-08-24T11:30:56;3.10;;;2.40;;
9823;SDS011;4951;50.778;7.196;2023-08-24T11:33:28;4.43;;;2.60;;
9823;SDS011;4951;50.778;7.196;2023-08-24T11:35:56;4.28;;;2.90;;
9823;SDS011;4951;50.778;7.196;2023-08-24T11:38:25;3.13;;;2.85;;
9823;SDS011;4951;50.778;7.196;2023-08-24T11:41:11;4.63;;;2.72;;
9823;SDS011;4951;50.778;7.196;2023-08-24T11:43:39;2.47;;;2.28;;
9823;SDS011;4951;50.778;7.196;2023-08-24T11:46:07;3.40;;;2.88;;
9823;SDS011;4951;50.778;7.196;2023-08-24T11:48:38;4.03;;;2.60;;
9823;SDS011;4951;50.778;7.196;2023-08-24T11:51:08;4.78;;;2.83;;
9823;SDS011;4951;50.778;7.196;2023-08-24T11:53:44;2.50;;;2.30;;
9823;SDS011;4951;50.778;7.196;2023-08-24T11:56:20;5.45;;;2.63;;
9823;SDS011;4951;50.778;7.196;2023-08-24T11:58:48;3.75;;;2.60;;
9823;SDS011;4951;50.778;7.196;2023-08-24T12:01:17;6.65;;;2.83;;
9823;SDS011;4951;50.778;7.196;2023-08-24T12:03:49;4.20;;;2.75;;
9823;SDS011;4951;50.778;7.196;2023-08-24T12:06:18;3.10;;;2.42;;
9823;SDS011;4951;50.778;7.196;2023-08-24T12:08:47;4.10;;;2.63;;
9823;SDS011;4951;50.778;7.196;2023-08-24T12:11:18;3.78;;;2.78;;
9823;SDS011;4951;50.778;7.196;2023-08-24T12:13:50;4.13;;;3.00;;
9823;SDS011;4951;50.778;7.196;2023-08-24T12:16:21;5.32;;;2.92;;
9823;SDS011;4951;50.778;7.196;2023-08-24T12:18:50;5.50;;;2.47;;
9823;SDS011;4951;50.778;7.196;2023-08-24T12:21:19;4.65;;;2.90;;
9823;SDS011;4951;50.778;7.196;2023-08-24T12:23:55;3.65;;;2.83;;
9823;SDS011;4951;50.778;7.196;2023-08-24T12:26:35;4.22;;;3.10;;
9823;SDS011;4951;50.778;7.196;2023-08-24T12:29:05;5.70;;;2.70;;
9823;SDS011;4951;50.778;7.196;2023-08-24T12:31:35;4.78;;;2.60;;
9823;SDS011;4951;50.778;7.196;2023-08-24T12:34:02;5.72;;;3.03;;
9823;SDS011;4951;50.778;7.196;2023-08-24T12:36:33;8.30;;;3.10;;
9823;SDS011;4951;50.778;7.196;2023-08-24T12:39:02;4.53;;;3.00;;
9823;SDS011;4951;50.778;7.196;2023-08-24T12:41:53;3.78;;;2.80;;
9823;SDS011;4951;50.778;7.196;2023-08-24T12:44:20;5.40;;;2.75;;
9823;SDS011;4951;50.778;7.196;2023-08-24T12:46:47;5.95;;;3.15;;
9823;SDS011;4951;50.778;7.196;2023-08-24T12:49:15;4.35;;;3.00;;
9823;SDS011;4951;50.778;7.196;2023-08-24T12:51:46;4.05;;;3.17;;
9823;SDS011;4951;50.778;7.196;2023-08-24T12:54:14;3.42;;;3.00;;
9823;SDS011;4951;50.778;7.196;2023-08-24T12:56:46;3.22;;;2.92;;
9823;SDS011;4951;50.778;7.196;2023-08-24T12:59:15;6.50;;;3.00;;
9823;SDS011;4951;50.778;7.196;2023-08-24T13:01:42;3.65;;;3.03;;
9823;SDS011;4951;50.778;7.196;2023-08-24T13:04:15;3.53;;;2.83;;
9823;SDS011;4951;50.778;7.196;2023-08-24T13:06:48;7.50;;;3.13;;
9823;SDS011;4951;50.778;7.196;2023-08-24T13:09:23;5.03;;;2.80;;
9823;SDS011;4951;50.778;7.196;2023-08-24T13:11:52;4.78;;;3.10;;
9823;SDS011;4951;50.778;7.196;2023-08-24T13:14:22;4.72;;;3.17;;
9823;SDS011;4951;50.778;7.196;2023-08-24T13:16:53;5.50;;;3.28;;
9823;SDS011;4951;50.778;7.196;2023-08-24T13:19:22;5.35;;;3.05;;
9823;SDS011;4951;50.778;7.196;2023-08-24T13:21:49;4.25;;;2.80;;
9823;SDS011;4951;50.778;7.196;2023-08-24T13:24:17;4.30;;;3.25;;
9823;SDS011;4951;50.778;7.196;2023-08-24T13:26:46;7.05;;;3.40;;
9823;SDS011;4951;50.778;7.196;2023-08-24T13:29:14;4.35;;;3.08;;
9823;SDS011;4951;50.778;7.196;2023-08-24T13:31:43;5.32;;;2.92;;
9823;SDS011;4951;50.778;7.196;2023-08-24T13:34:11;3.50;;;3.00;;
9823;SDS011;4951;50.778;7.196;2023-08-24T13:36:39;5.75;;;3.00;;
9823;SDS011;4951;50.778;7.196;2023-08-24T13:39:21;3.97;;;2.95;;
9823;SDS011;4951;50.778;7.196;2023-08-24T13:41:49;4.22;;;3.03;;
9823;SDS011;4951;50.778;7.196;2023-08-24T13:44:17;5.78;;;3.08;;
9823;SDS011;4951;50.778;7.196;2023-08-24T13:46:46;6.18;;;3.30;;
9823;SDS011;4951;50.778;7.196;2023-08-24T13:49:29;4.15;;;3.15;;
9823;SDS011;4951;50.778;7.196;2023-08-24T13:51:56;5.80;;;3.17;;
9823;SDS011;4951;50.778;7.196;2023-08-24T13:54:33;5.22;;;3.60;;
9823;SDS011;4951;50.778;7.196;2023-08-24T13:57:03;4.30;;;3.05;;
9823;SDS011;4951;50.778;7.196;2023-08-24T14:00:03;7.22;;;2.95;;
9823;SDS011;4951;50.778;7.196;2023-08-24T14:05:47;5.68;;;3.22;;
9823;SDS011;4951;50.778;7.196;2023-08-24T14:08:22;6.55;;;3.25;;
9823;SDS011;4951;50.778;7.196;2023-08-24T14:10:49;5.55;;;3.67;;
9823;SDS011;4951;50.778;7.196;2023-08-24T14:13:18;5.13;;;3.28;;
9823;SDS011;4951;50.778;7.196;2023-08-24T14:15:47;4.25;;;3.45;;
9823;SDS011;4951;50.778;7.196;2023-08-24T14:18:21;4.43;;;2.80;;
9823;SDS011;4951;50.778;7.196;2023-08-24T14:20:49;3.88;;;2.85;;
9823;SDS011;4951;50.778;7.196;2023-08-24T14:23:18;8.10;;;3.20;;
9823;SDS011;4951;50.778;7.196;2023-08-24T14:25:51;4.28;;;3.40;;
9823;SDS011;4951;50.778;7.196;2023-08-24T14:28:19;4.63;;;3.33;;
9823;SDS011;4951;50.778;7.196;2023-08-24T14:30:48;4.10;;;2.85;;
9823;SDS011;4951;50.778;7.196;2023-08-24T14:33:26;5.30;;;3.35;;
9823;SDS011;4951;50.778;7.196;2023-08-24T14:35:54;7.70;;;3.40;;
9823;SDS011;4951;50.778;7.196;2023-08-24T14:38:21;5.90;;;3.20;;
9823;SDS011;4951;50.778;7.196;2023-08-24T14:40:49;4.25;;;3.47;;
9823;SDS011;4951;50.778;7.196;2023-08-24T14:43:17;3.83;;;2.92;;
9823;SDS011;4951;50.778;7.196;2023-08-24T14:45:44;7.05;;;3.72;;
9823;SDS011;4951;50.778;7.196;2023-08-24T14:48:12;5.40;;;3.22;;
9823;SDS011;4951;50.778;7.196;2023-08-24T14:50:47;4.93;;;3.17;;
9823;SDS011;4951;50.778;7.196;2023-08-24T14:53:19;4.50;;;3.25;;
9823;SDS011;4951;50.778;7.196;2023-08-24T14:55:50;3.50;;;3.03;;
9823;SDS011;4951;50.778;7.196;2023-08-24T14:58:22;7.75;;;3.17;;
9823;SDS011;4951;50.778;7.196;2023-08-24T15:00:50;4.45;;;3.08;;
9823;SDS011;4951;50.778;7.196;2023-08-24T15:03:27;4.47;;;2.97;;
9823;SDS011;4951;50.778;7.196;2023-08-24T15:06:03;6.95;;;3.47;;
9823;SDS011;4951;50.778;7.196;2023-08-24T15:08:31;5.20;;;3.40;;
9823;SDS011;4951;50.778;7.196;2023-08-24T15:13:52;5.65;;;3.38;;
9823;SDS011;4951;50.778;7.196;2023-08-24T15:16:22;4.10;;;3.20;;
9823;SDS011;4951;50.778;7.196;2023-08-24T15:18:53;4.82;;;3.00;;
9823;SDS011;4951;50.778;7.196;2023-08-24T15:21:22;5.85;;;3.42;;
9823;SDS011;4951;50.778;7.196;2023-08-24T15:23:52;3.10;;;2.80;;
9823;SDS011;4951;50.778;7.196;2023-08-24T15:26:36;5.50;;;3.13;;
9823;SDS011;4951;50.778;7.196;2023-08-24T15:29:07;4.32;;;2.90;;
9823;SDS011;4951;50.778;7.196;2023-08-24T15:31:41;6.13;;;3.25;;
9823;SDS011;4951;50.778;7.196;2023-08-24T15:34:09;6.70;;;3.28;;
9823;SDS011;4951;50.778;7.196;2023-08-24T15:36:48;4.82;;;3.25;;
9823;SDS011;4951;50.778;7.196;2023-08-24T15:39:28;7.10;;;3.95;;
9823;SDS011;4951;50.778;7.196;2023-08-24T15:42:05;5.70;;;3.65;;
9823;SDS011;4951;50.778;7.196;2023-08-24T15:44:33;8.05;;;3.60;;
9823;SDS011;4951;50.778;7.196;2023-08-24T15:47:02;6.65;;;3.28;;
9823;SDS011;4951;50.778;7.196;2023-08-24T15:49:30;5.47;;;3.17;;